createdAt,value
2019-02-27T00:00:54.534Z,7.73
2019-02-27T00:03:22.959Z,5.40
2019-02-27T00:05:51.462Z,5.00
2019-02-27T00:08:19.894Z,5.83
2019-02-27T00:10:48.385Z,4.63
2019-02-27T00:13:16.872Z,3.50
2019-02-27T00:15:47.078Z,3.87
2019-02-27T00:18:15.467Z,3.47
2019-02-27T00:20:44.096Z,4.70
2019-02-27T00:23:12.540Z,8.70
2019-02-27T00:25:41.044Z,4.47
2019-02-27T00:28:10.845Z,4.07
2019-02-27T00:30:39.465Z,3.10
2019-02-27T00:33:07.882Z,3.30
2019-02-27T00:35:38.653Z,6.07
2019-02-27T00:38:06.699Z,3.63
2019-02-27T00:40:38.607Z,4.27
2019-02-27T00:43:05.514Z,3.10
2019-02-27T00:45:34.010Z,3.23
2019-02-27T00:48:02.504Z,4.40
2019-02-27T00:50:30.909Z,5.90
2019-02-27T00:52:59.338Z,6.63
2019-02-27T00:55:28.040Z,3.13
2019-02-27T00:57:58.267Z,6.27
2019-02-27T01:00:26.757Z,5.00
2019-02-27T01:02:55.187Z,3.83
2019-02-27T01:05:23.593Z,3.03
2019-02-27T01:07:54.224Z,4.57
2019-02-27T01:10:22.618Z,2.30
2019-02-27T01:12:51.532Z,2.67
2019-02-27T01:15:20.031Z,2.73
2019-02-27T01:17:48.565Z,6.03
2019-02-27T01:20:17.054Z,4.67
2019-02-27T01:22:45.563Z,2.37
2019-02-27T01:25:15.964Z,3.00
2019-02-27T01:27:45.828Z,4.73
2019-02-27T01:30:14.443Z,4.97
2019-02-27T01:32:42.834Z,2.70
2019-02-27T01:35:11.888Z,1.83
2019-02-27T01:37:40.265Z,1.73
2019-02-27T01:40:10.888Z,2.80
2019-02-27T01:42:39.287Z,3.43
2019-02-27T01:45:12.870Z,2.40
2019-02-27T01:47:41.373Z,2.23
2019-02-27T01:50:28.145Z,3.40
2019-02-27T01:52:56.550Z,3.00
2019-02-27T01:55:24.942Z,3.30
2019-02-27T01:57:54.053Z,3.20
2019-02-27T02:00:23.313Z,2.67
2019-02-27T02:02:52.420Z,3.47
2019-02-27T02:05:20.815Z,2.60
2019-02-27T02:07:49.214Z,4.17
2019-02-27T02:10:17.872Z,2.70
2019-02-27T02:12:51.545Z,3.03
2019-02-27T02:15:35.717Z,4.13
2019-02-27T02:19:18.990Z,2.23
2019-02-27T02:22:48.412Z,3.20
2019-02-27T02:26:13.648Z,3.80
2019-02-27T02:29:38.882Z,5.23
2019-02-27T02:32:23.000Z,3.80
2019-02-27T02:35:52.629Z,4.00
2019-02-27T02:39:04.101Z,8.63
2019-02-27T02:42:35.261Z,3.30
2019-02-27T02:45:32.743Z,3.80
2019-02-27T02:48:42.575Z,3.10
2019-02-27T02:52:09.074Z,5.40
2019-02-27T02:54:56.559Z,4.40
2019-02-27T02:58:12.801Z,3.90
2019-02-27T03:01:16.845Z,3.37
2019-02-27T03:04:51.160Z,8.63
2019-02-27T03:08:11.487Z,3.43
2019-02-27T03:11:23.392Z,4.57
2019-02-27T03:14:57.906Z,4.63
2019-02-27T03:18:45.071Z,2.23
2019-02-27T03:22:15.515Z,1.93
2019-02-27T03:25:40.715Z,2.43
2019-02-27T03:28:57.910Z,2.70
2019-02-27T03:31:59.951Z,2.63
2019-02-27T03:35:28.010Z,3.83
2019-02-27T03:38:41.418Z,4.07
2019-02-27T03:42:08.449Z,3.10
2019-02-27T03:44:59.856Z,6.27
2019-02-27T03:48:43.192Z,3.87
2019-02-27T03:51:27.956Z,3.30
2019-02-27T03:54:34.551Z,3.13
2019-02-27T03:57:56.118Z,2.37
2019-02-27T04:00:53.816Z,5.63
2019-02-27T04:03:38.370Z,2.77
2019-02-27T04:07:13.267Z,2.57
2019-02-27T04:09:41.849Z,3.30
2019-02-27T04:12:15.960Z,4.53
2019-02-27T04:14:42.132Z,3.70
2019-02-27T04:17:12.203Z,2.40
2019-02-27T04:19:41.097Z,2.80
2019-02-27T04:22:09.752Z,2.00
2019-02-27T04:24:38.223Z,2.30
2019-02-27T04:27:06.650Z,1.90
2019-02-27T04:29:35.144Z,2.17
2019-02-27T04:32:03.645Z,4.23
2019-02-27T04:34:33.792Z,2.90
2019-02-27T04:37:02.391Z,3.03
2019-02-27T04:39:30.872Z,3.10
2019-02-27T04:41:59.263Z,4.20
2019-02-27T04:44:30.116Z,3.40
2019-02-27T04:46:58.519Z,4.43
2019-02-27T04:49:26.920Z,7.83
2019-02-27T04:51:55.338Z,3.33
2019-02-27T04:54:23.846Z,2.83
2019-02-27T04:56:52.256Z,4.67
2019-02-27T04:59:20.661Z,3.90
2019-02-27T05:01:49.151Z,3.77
2019-02-27T05:04:18.067Z,6.27
2019-02-27T05:06:47.840Z,5.63
2019-02-27T05:09:16.368Z,3.27
2019-02-27T05:11:47.587Z,4.30
2019-02-27T05:14:17.999Z,6.00
2019-02-27T05:16:48.189Z,6.50
2019-02-27T05:19:16.810Z,5.70
2019-02-27T05:21:45.314Z,5.13
2019-02-27T05:24:15.230Z,6.20
2019-02-27T05:26:45.425Z,3.00
2019-02-27T05:29:15.819Z,3.50
2019-02-27T05:31:44.495Z,5.33
2019-02-27T05:34:14.758Z,6.40
2019-02-27T05:36:43.378Z,4.83
2019-02-27T05:39:12.057Z,3.83
2019-02-27T05:41:40.556Z,6.10
2019-02-27T05:44:12.427Z,5.10
2019-02-27T05:46:41.118Z,5.60
2019-02-27T05:49:11.024Z,4.23
2019-02-27T05:51:39.525Z,5.77
2019-02-27T05:54:08.321Z,5.53
2019-02-27T05:56:37.061Z,3.80
2019-02-27T05:59:05.683Z,5.10
2019-02-27T06:01:37.753Z,7.57
2019-02-27T06:04:04.827Z,3.87
2019-02-27T06:06:33.411Z,8.87
2019-02-27T06:09:01.943Z,5.03
2019-02-27T06:11:33.059Z,8.20
2019-02-27T06:14:01.036Z,7.00
2019-02-27T06:16:30.092Z,4.95
2019-02-27T06:18:59.249Z,3.72
2019-02-27T06:21:27.935Z,9.90
2019-02-27T06:23:57.560Z,7.53
2019-02-27T06:26:26.096Z,6.67
2019-02-27T06:28:54.936Z,6.23
2019-02-27T06:31:23.750Z,18.57
2019-02-27T06:33:53.974Z,12.77
2019-02-27T06:36:23.461Z,9.10
2019-02-27T06:38:52.626Z,7.13
2019-02-27T06:41:21.176Z,7.23
2019-02-27T06:43:49.779Z,8.57
2019-02-27T06:46:20.066Z,7.60
2019-02-27T06:48:49.385Z,6.77
2019-02-27T06:51:17.984Z,7.80
2019-02-27T06:53:46.995Z,7.50
2019-02-27T06:56:15.695Z,11.67
2019-02-27T06:58:44.388Z,14.87
2019-02-27T07:01:14.584Z,9.57
2019-02-27T07:03:43.080Z,13.50
2019-02-27T07:06:11.480Z,11.17
2019-02-27T07:08:39.990Z,12.17
2019-02-27T07:11:10.958Z,13.20
2019-02-27T07:13:39.586Z,10.33
2019-02-27T07:16:08.270Z,12.30
2019-02-27T07:18:41.436Z,13.83
2019-02-27T07:21:09.623Z,10.00
2019-02-27T07:23:39.856Z,11.30
2019-02-27T07:26:09.253Z,9.80
2019-02-27T07:28:43.222Z,10.90
2019-02-27T07:31:09.853Z,6.60
2019-02-27T07:33:40.565Z,9.50
2019-02-27T07:36:08.647Z,9.50
2019-02-27T07:38:38.827Z,6.97
2019-02-27T07:41:07.310Z,10.00
2019-02-27T07:43:35.712Z,10.80
2019-02-27T07:46:04.195Z,15.07
2019-02-27T07:48:32.805Z,8.37
2019-02-27T07:51:01.591Z,10.50
2019-02-27T07:53:30.120Z,11.20
2019-02-27T07:55:58.689Z,10.70
2019-02-27T07:58:29.277Z,11.67
2019-02-27T08:00:57.506Z,11.97
2019-02-27T08:03:26.025Z,12.50
2019-02-27T08:05:55.125Z,9.93
2019-02-27T08:08:24.324Z,10.23
2019-02-27T08:10:53.924Z,14.20
2019-02-27T08:13:22.796Z,8.47
2019-02-27T08:15:51.294Z,9.07
2019-02-27T08:18:29.511Z,10.90
2019-02-27T08:20:52.138Z,14.20
2019-02-27T08:23:21.563Z,12.00
2019-02-27T08:25:50.057Z,11.97
2019-02-27T08:28:20.263Z,9.63
2019-02-27T08:30:48.748Z,8.57
2019-02-27T08:33:17.176Z,10.07
2019-02-27T08:35:46.160Z,10.87
2019-02-27T08:38:14.862Z,10.10
2019-02-27T08:40:43.253Z,8.67
2019-02-27T08:43:11.668Z,8.30
2019-02-27T08:45:40.147Z,14.20
2019-02-27T08:48:08.625Z,9.47
2019-02-27T08:50:37.793Z,14.87
2019-02-27T08:53:06.759Z,17.17
2019-02-27T08:55:38.992Z,10.43
2019-02-27T08:58:07.145Z,8.13
2019-02-27T09:00:38.384Z,12.50
2019-02-27T09:03:07.010Z,12.50
2019-02-27T09:05:35.715Z,10.40
2019-02-27T09:08:07.350Z,11.30
2019-02-27T09:10:35.918Z,9.93
2019-02-27T09:13:05.871Z,10.10
2019-02-27T09:15:35.035Z,11.77
2019-02-27T09:18:03.542Z,10.63
2019-02-27T09:20:33.148Z,13.60
2019-02-27T09:23:03.421Z,18.00
2019-02-27T09:25:31.929Z,15.40
2019-02-27T09:28:03.474Z,13.63
2019-02-27T09:30:32.327Z,11.50
2019-02-27T09:33:00.824Z,15.00
2019-02-27T09:35:32.220Z,8.40
2019-02-27T09:37:59.721Z,8.60
2019-02-27T09:40:29.631Z,16.27
2019-02-27T09:42:58.815Z,8.87
2019-02-27T09:45:29.796Z,10.47
2019-02-27T09:47:59.946Z,9.50
2019-02-27T09:50:32.417Z,11.70
2019-02-27T09:53:03.617Z,9.27
2019-02-27T09:55:34.712Z,8.60
2019-02-27T09:58:10.101Z,19.40
2019-02-27T10:01:02.929Z,11.60
2019-02-27T10:03:30.107Z,18.33
2019-02-27T10:05:58.586Z,16.30
2019-02-27T10:08:27.079Z,11.47
2019-02-27T10:10:55.459Z,10.80
2019-02-27T10:13:23.865Z,13.87
2019-02-27T10:15:52.352Z,19.60
2019-02-27T10:18:22.084Z,11.17
2019-02-27T10:20:52.446Z,25.80
2019-02-27T10:23:22.628Z,23.13
2019-02-27T10:25:51.307Z,18.40
2019-02-27T10:28:19.807Z,23.43
2019-02-27T10:30:49.937Z,19.67
2019-02-27T10:33:18.619Z,13.23
2019-02-27T10:35:47.555Z,10.87
2019-02-27T10:38:16.013Z,12.47
2019-02-27T10:40:46.014Z,11.83
2019-02-27T10:43:15.027Z,11.80
2019-02-27T10:45:48.224Z,13.90
2019-02-27T10:48:15.625Z,9.87
2019-02-27T10:50:44.931Z,19.47
2019-02-27T10:53:14.532Z,16.10
2019-02-27T10:55:43.117Z,15.80
2019-02-27T10:58:13.299Z,13.47
2019-02-27T11:00:46.298Z,18.17
2019-02-27T11:03:15.020Z,13.30
2019-02-27T11:05:43.414Z,13.20
2019-02-27T11:08:11.890Z,13.00
2019-02-27T11:10:40.390Z,19.13
2019-02-27T11:13:08.791Z,11.97
2019-02-27T11:15:40.837Z,15.10
2019-02-27T11:18:08.467Z,10.10
2019-02-27T11:20:36.961Z,9.53
2019-02-27T11:23:07.006Z,9.63
2019-02-27T11:25:37.574Z,11.50
2019-02-27T11:28:06.376Z,11.97
2019-02-27T11:30:36.797Z,10.40
2019-02-27T11:33:05.787Z,13.90
2019-02-27T11:35:34.158Z,11.70
2019-02-27T11:38:04.359Z,16.47
2019-02-27T11:40:32.830Z,11.80
2019-02-27T11:43:06.355Z,16.77
2019-02-27T11:45:35.218Z,15.67
2019-02-27T11:48:04.028Z,14.20
2019-02-27T11:50:34.227Z,17.83
2019-02-27T11:53:03.062Z,13.67
2019-02-27T11:55:33.396Z,11.63
2019-02-27T11:58:04.389Z,17.73
2019-02-27T12:00:33.099Z,11.43
2019-02-27T12:03:02.715Z,14.97
2019-02-27T12:05:34.025Z,19.10
2019-02-27T12:08:03.667Z,17.93
2019-02-27T12:10:33.876Z,18.10
2019-02-27T12:13:02.274Z,13.53
2019-02-27T12:15:30.658Z,12.80
2019-02-27T12:18:00.616Z,11.63
2019-02-27T12:20:29.861Z,14.53
2019-02-27T12:22:58.380Z,13.97
2019-02-27T12:25:29.675Z,18.77
2019-02-27T12:27:57.099Z,12.03
2019-02-27T12:30:26.647Z,13.83
2019-02-27T12:32:56.690Z,13.30
2019-02-27T12:35:27.954Z,12.40
2019-02-27T12:37:56.443Z,9.70
2019-02-27T12:40:25.251Z,16.83
2019-02-27T12:42:53.840Z,12.73
2019-02-27T12:45:25.765Z,13.57
2019-02-27T12:47:55.017Z,10.73
2019-02-27T12:50:27.049Z,10.37
2019-02-27T12:52:56.191Z,15.27
2019-02-27T12:55:24.987Z,15.20
2019-02-27T12:57:53.575Z,11.23
2019-02-27T13:00:26.453Z,10.33
2019-02-27T13:02:55.009Z,11.30
2019-02-27T13:05:27.343Z,18.20
2019-02-27T13:07:55.553Z,11.97
2019-02-27T13:10:23.949Z,14.87
2019-02-27T13:12:52.642Z,12.77
2019-02-27T13:15:22.183Z,14.77
2019-02-27T13:17:56.198Z,17.00
2019-02-27T13:20:23.348Z,21.17
2019-02-27T13:22:51.855Z,18.30
2019-02-27T13:25:24.111Z,12.23
2019-02-27T13:27:52.622Z,10.73
2019-02-27T13:30:21.298Z,10.20
2019-02-27T13:32:49.705Z,10.33
2019-02-27T13:35:20.140Z,15.57
2019-02-27T13:37:49.325Z,11.20
2019-02-27T13:40:19.042Z,13.83
2019-02-27T13:42:52.426Z,18.03
2019-02-27T13:45:22.088Z,16.63
2019-02-27T13:47:50.525Z,13.33
2019-02-27T13:50:22.160Z,18.30
2019-02-27T13:52:50.909Z,16.27
2019-02-27T13:55:19.791Z,12.13
2019-02-27T13:57:48.189Z,12.73
2019-02-27T14:00:25.607Z,13.30
2019-02-27T14:02:53.535Z,13.90
2019-02-27T14:05:22.236Z,11.03
2019-02-27T14:07:50.661Z,13.10
2019-02-27T14:10:20.718Z,8.77
2019-02-27T14:12:49.447Z,10.93
2019-02-27T14:15:18.300Z,18.10
2019-02-27T14:17:48.505Z,16.83
2019-02-27T14:20:18.435Z,14.40
2019-02-27T14:22:47.721Z,22.60
2019-02-27T14:25:19.020Z,12.93
2019-02-27T14:27:48.152Z,13.23
2019-02-27T14:30:19.789Z,17.20
2019-02-27T14:32:48.298Z,21.13
2019-02-27T14:35:16.732Z,12.37
2019-02-27T14:37:49.551Z,13.50
2019-02-27T14:40:17.245Z,9.97
2019-02-27T14:42:46.623Z,11.80
2019-02-27T14:45:18.658Z,12.53
2019-02-27T14:47:48.035Z,15.43
2019-02-27T14:50:19.002Z,13.63
2019-02-27T14:52:47.476Z,12.93
2019-02-27T14:55:18.371Z,19.60
2019-02-27T14:57:51.144Z,11.37
2019-02-27T15:00:24.946Z,22.67
2019-02-27T15:02:55.617Z,15.53
2019-02-27T15:05:24.477Z,15.97
2019-02-27T15:07:54.644Z,13.67
2019-02-27T15:10:25.263Z,9.30
2019-02-27T15:12:55.388Z,15.70
2019-02-27T15:15:26.699Z,14.97
2019-02-27T15:17:55.189Z,9.90
2019-02-27T15:20:25.112Z,8.80
2019-02-27T15:22:53.788Z,8.63
2019-02-27T15:25:24.038Z,10.20
2019-02-27T15:27:58.340Z,11.03
2019-02-27T15:30:27.506Z,11.90
2019-02-27T15:33:03.704Z,17.50
2019-02-27T15:35:30.659Z,11.07
2019-02-27T15:37:59.135Z,19.67
2019-02-27T15:40:29.654Z,22.40
2019-02-27T15:42:58.560Z,23.90
2019-02-27T15:45:27.462Z,20.60
2019-02-27T15:47:57.648Z,9.67
2019-02-27T15:50:26.232Z,10.13
2019-02-27T15:52:54.615Z,13.70
2019-02-27T15:55:23.025Z,18.10
2019-02-27T15:57:53.803Z,18.60
2019-02-27T16:00:22.325Z,12.83
2019-02-27T16:02:50.729Z,20.23
2019-02-27T16:05:19.123Z,13.67
2019-02-27T16:07:49.502Z,21.53
2019-02-27T16:10:19.784Z,22.70
2019-02-27T16:12:48.312Z,18.30
2019-02-27T16:15:17.848Z,21.00
2019-02-27T16:17:46.420Z,28.97
2019-02-27T16:20:16.859Z,18.87
2019-02-27T16:22:45.295Z,25.37
2019-02-27T16:25:19.770Z,26.50
2019-02-27T16:27:47.345Z,27.63
2019-02-27T16:30:23.921Z,22.97
2019-02-27T16:32:52.418Z,28.63
2019-02-27T16:35:20.920Z,23.00
2019-02-27T16:37:49.617Z,17.37
2019-02-27T16:40:19.026Z,10.23
2019-02-27T16:42:47.669Z,10.17
2019-02-27T16:45:18.906Z,14.90
2019-02-27T16:47:47.282Z,11.47
2019-02-27T16:50:24.307Z,11.13
2019-02-27T16:52:51.223Z,10.00
2019-02-27T16:55:21.241Z,13.80
2019-02-27T16:57:49.823Z,13.37
2019-02-27T17:00:21.768Z,11.60
2019-02-27T17:02:50.159Z,13.50
2019-02-27T17:05:20.438Z,17.80
2019-02-27T17:07:48.889Z,19.70
2019-02-27T17:10:21.029Z,17.70
2019-02-27T17:12:49.432Z,22.83
2019-02-27T17:15:17.828Z,17.73
2019-02-27T17:17:46.476Z,20.80
2019-02-27T17:20:17.705Z,18.17
2019-02-27T17:22:47.939Z,21.67
2019-02-27T17:25:16.419Z,29.40
2019-02-27T17:27:49.943Z,29.50
2019-02-27T17:30:20.591Z,24.17
2019-02-27T17:32:49.077Z,29.03
2019-02-27T17:35:17.491Z,26.00
2019-02-27T17:37:45.975Z,25.47
2019-02-27T17:40:16.427Z,25.30
2019-02-27T17:42:46.983Z,20.43
2019-02-27T17:45:17.363Z,16.67
2019-02-27T17:47:46.045Z,16.70
2019-02-27T17:50:14.809Z,20.80
2019-02-27T17:52:43.244Z,17.80
2019-02-27T17:55:12.952Z,17.00
2019-02-27T17:57:41.453Z,22.40
2019-02-27T18:00:18.181Z,19.70
2019-02-27T18:02:46.576Z,22.07
2019-02-27T18:05:15.187Z,20.03
2019-02-27T18:07:43.807Z,17.63
2019-02-27T18:10:12.303Z,18.00
2019-02-27T18:12:40.836Z,17.13
2019-02-27T18:15:11.633Z,24.13
2019-02-27T18:17:49.104Z,17.27
2019-02-27T18:20:29.134Z,22.47
2019-02-27T18:22:57.979Z,23.27
2019-02-27T18:25:26.363Z,18.27
2019-02-27T18:27:58.583Z,18.33
2019-02-27T18:30:26.274Z,22.10
2019-02-27T18:32:54.706Z,24.10
2019-02-27T18:35:23.137Z,26.87
2019-02-27T18:37:54.299Z,23.83
2019-02-27T18:40:23.155Z,27.10
2019-02-27T18:42:55.164Z,19.40
2019-02-27T18:45:22.242Z,22.13
2019-02-27T18:47:51.127Z,23.03
2019-02-27T18:50:20.133Z,18.97
2019-02-27T18:52:49.300Z,19.90
2019-02-27T18:55:19.581Z,21.70
2019-02-27T18:57:48.168Z,21.50
2019-02-27T19:00:20.479Z,27.27
2019-02-27T19:02:52.005Z,24.37
2019-02-27T19:05:21.754Z,19.90
2019-02-27T19:07:53.629Z,19.37
2019-02-27T19:10:21.324Z,18.17
2019-02-27T19:12:51.695Z,20.37
2019-02-27T19:15:22.077Z,17.13
2019-02-27T19:17:51.180Z,18.63
2019-02-27T19:20:24.897Z,20.20
2019-02-27T19:22:53.842Z,25.10
2019-02-27T19:25:23.017Z,25.50
2019-02-27T19:27:51.937Z,17.07
2019-02-27T19:30:22.480Z,20.90
2019-02-27T19:32:51.208Z,21.57
2019-02-27T19:35:22.417Z,19.27
2019-02-27T19:37:51.798Z,17.63
2019-02-27T19:40:20.840Z,21.53
2019-02-27T19:43:01.036Z,17.43
2019-02-27T19:45:30.291Z,18.00
2019-02-27T19:47:58.738Z,21.57
2019-02-27T19:50:27.298Z,20.07
2019-02-27T19:52:56.063Z,17.60
2019-02-27T19:55:27.409Z,20.37
2019-02-27T19:57:54.975Z,19.33
2019-02-27T20:00:25.478Z,18.00
2019-02-27T20:02:57.881Z,19.77
2019-02-27T20:05:24.797Z,17.10
2019-02-27T20:07:53.290Z,18.20
2019-02-27T20:10:22.265Z,13.97
2019-02-27T20:12:52.919Z,15.43
2019-02-27T20:15:23.414Z,20.77
2019-02-27T20:17:52.761Z,24.73
2019-02-27T20:20:22.507Z,22.50
2019-02-27T20:22:53.366Z,19.67
2019-02-27T20:25:23.132Z,20.37
2019-02-27T20:27:53.816Z,18.70
2019-02-27T20:30:23.482Z,19.13
2019-02-27T20:32:52.667Z,16.50
2019-02-27T20:35:23.261Z,18.03
2019-02-27T20:37:51.708Z,15.30
2019-02-27T20:40:20.258Z,20.47
2019-02-27T20:42:50.784Z,15.00
2019-02-27T20:45:19.552Z,18.47
2019-02-27T20:47:48.092Z,18.77
2019-02-27T20:50:26.851Z,19.27
2019-02-27T20:52:51.936Z,17.00
2019-02-27T20:55:20.951Z,14.33
2019-02-27T20:57:49.393Z,18.60
2019-02-27T21:00:19.965Z,16.47
2019-02-27T21:02:50.325Z,18.90
2019-02-27T21:05:20.667Z,19.60
2019-02-27T21:07:49.497Z,16.90
2019-02-27T21:10:20.876Z,17.30
2019-02-27T21:12:54.090Z,17.53
2019-02-27T21:15:21.032Z,21.17
2019-02-27T21:17:49.570Z,18.63
2019-02-27T21:20:18.440Z,22.13
2019-02-27T21:22:47.179Z,19.70
2019-02-27T21:25:16.470Z,15.77
2019-02-27T21:27:45.409Z,21.97
2019-02-27T21:30:18.867Z,17.40
2019-02-27T21:32:47.983Z,17.43
2019-02-27T21:35:16.571Z,14.40
2019-02-27T21:37:47.089Z,18.37
2019-02-27T21:40:15.517Z,24.17
2019-02-27T21:42:45.954Z,17.73
2019-02-27T21:45:15.426Z,16.13
2019-02-27T21:47:46.147Z,18.97
2019-02-27T21:50:16.326Z,16.20
2019-02-27T21:52:46.578Z,14.60
2019-02-27T21:55:15.186Z,14.73
2019-02-27T21:57:44.357Z,15.50
2019-02-27T22:00:18.240Z,15.03
2019-02-27T22:02:46.738Z,14.93
2019-02-27T22:05:18.904Z,15.80
2019-02-27T22:07:45.970Z,16.33
2019-02-27T22:10:18.987Z,14.83
2019-02-27T22:12:45.010Z,15.20
2019-02-27T22:15:21.942Z,17.20
2019-02-27T22:17:48.158Z,17.90
2019-02-27T22:20:16.716Z,18.33
2019-02-27T22:22:45.123Z,23.80
2019-02-27T22:25:13.619Z,27.13
2019-02-27T22:27:43.294Z,22.63
2019-02-27T22:30:15.013Z,20.37
2019-02-27T22:32:47.634Z,22.37
2019-02-27T22:35:13.949Z,17.20
2019-02-27T22:37:42.460Z,25.17
2019-02-27T22:40:14.442Z,22.93
2019-02-27T22:42:45.578Z,22.23
2019-02-27T22:45:14.359Z,21.67
2019-02-27T22:47:42.764Z,22.80
2019-02-27T22:50:13.336Z,20.92
2019-02-27T22:52:41.839Z,17.10
2019-02-27T22:55:10.884Z,17.65
2019-02-27T22:57:39.495Z,20.90
2019-02-27T23:00:56.059Z,18.33
2019-02-27T23:03:26.680Z,24.05
2019-02-27T23:05:55.124Z,23.23
2019-02-27T23:08:24.157Z,28.60
2019-02-27T23:10:54.334Z,22.80
2019-02-27T23:13:22.847Z,28.00
2019-02-27T23:15:57.791Z,27.40
2019-02-27T23:18:23.587Z,32.67
2019-02-27T23:20:52.596Z,24.95
2019-02-27T23:23:22.307Z,28.42
2019-02-27T23:25:50.789Z,30.93
2019-02-27T23:28:19.298Z,19.87
2019-02-27T23:30:49.517Z,23.47
2019-02-27T23:33:18.031Z,21.17
2019-02-27T23:35:47.342Z,20.40
2019-02-27T23:38:17.175Z,25.62
2019-02-27T23:40:48.967Z,17.80
2019-02-27T23:43:16.308Z,20.35
2019-02-27T23:45:46.318Z,20.20
2019-02-27T23:48:14.704Z,26.48
2019-02-27T23:50:43.334Z,22.25
2019-02-27T23:53:11.859Z,22.52
2019-02-27T23:55:44.621Z,26.00
2019-02-27T23:58:11.913Z,28.98
